Forside
METAR-TAF:

METAR-TAF

Lufthavne :

Žilina, Slovakiet

Breddekreds: 49-14N, længdekreds: 018-36-49E, højde: 312 m

Aktuelle vejr

Denne rapport blev lavet for 16 minutter siden, kl. 01:30 UTC
Vind 2 kt fra varierende retninger
Temperatur 8°C
Fugtighed 93%
Tryk 1028 hPa
Sigt 10 km eller mere
ingen skyer under 1500m og ingen cumulonimbus

METAR: LZZI 130130Z VRB02KT CAVOK 08/07 Q1028

Tid: 03:46 (01:46 UTC)

Vejrudsigter

Denne rapport blev lavet for 2 timer og 31 minutter siden, kl. 23:15 UTC
Foreløbig gælder fra 13 på 00 UTC til 13 på 09 UTC
Vind 2 kt fra varierende retninger
Sigt 10 km eller mere
ingen skyer under 1500m og ingen cumulonimbus
ændring
fra 13 på 07 UTC til 13 på 09 UTC
Vind 5 kt fra vestsydvest

TAF: LZZI 122315Z 1300/1309 VRB02KT CAVOK BECMG 1307/1309 24005KT

Vejrobservationer og prognoser fra mere end 4000 lufthavne (METAR og TAF).

De gule og røde prikker repræsenterer de meteorologiske stationer.

Flyt musen over at se navnet på stationen.

Så klik over at se vejr observationer og prognoser.

At skifte det kort: Klik på de grønne knapper med et sort kors for at zoome ind; på den grønne knap med en bindestreg for at zoome ud; eller på de grønne pile for tilstødende kort.


METAR-TAF: